createdAt,value
2023-05-14T00:00:49.643Z,10.29
2023-05-14T00:03:35.680Z,10.53
2023-05-14T00:06:23.697Z,10.70
2023-05-14T00:09:09.504Z,11.03
2023-05-14T00:11:55.543Z,10.46
2023-05-14T00:14:41.584Z,10.58
2023-05-14T00:17:27.615Z,10.53
2023-05-14T00:20:13.673Z,10.56
2023-05-14T00:22:59.561Z,10.15
2023-05-14T00:25:45.482Z,10.15
2023-05-14T00:28:31.367Z,10.58
2023-05-14T00:31:17.208Z,10.36
2023-05-14T00:34:03.125Z,10.42
2023-05-14T00:36:48.908Z,10.33
2023-05-14T00:39:35.111Z,10.01
2023-05-14T00:42:21.136Z,9.93
2023-05-14T00:45:07.065Z,10.01
2023-05-14T00:47:53.085Z,10.31
2023-05-14T00:50:38.991Z,10.27
2023-05-14T00:53:25.350Z,10.26
2023-05-14T00:56:11.417Z,10.40
2023-05-14T00:58:57.217Z,10.13
2023-05-14T01:01:43.179Z,10.21
2023-05-14T01:04:29.020Z,10.22
2023-05-14T01:07:14.862Z,9.98
2023-05-14T01:10:00.844Z,10.05
2023-05-14T01:12:46.834Z,9.56
2023-05-14T01:15:32.701Z,10.06
2023-05-14T01:18:18.637Z,9.88
2023-05-14T01:21:04.477Z,9.71
2023-05-14T01:23:50.319Z,9.60
2023-05-14T01:26:36.276Z,9.61
2023-05-14T01:29:22.187Z,9.56
2023-05-14T01:32:08.095Z,9.92
2023-05-14T01:34:54.151Z,9.66
2023-05-14T01:37:40.065Z,9.55
2023-05-14T01:40:26.161Z,9.78
2023-05-14T01:43:12.388Z,9.57
2023-05-14T01:45:58.429Z,9.71
2023-05-14T01:48:44.491Z,9.84
2023-05-14T01:51:30.362Z,9.86
2023-05-14T01:54:16.178Z,9.64
2023-05-14T01:57:02.216Z,9.61
2023-05-14T01:59:49.524Z,9.34
2023-05-14T02:02:35.471Z,9.75
2023-05-14T02:05:21.296Z,9.31
2023-05-14T02:08:09.054Z,9.64
2023-05-14T02:10:54.923Z,9.56
2023-05-14T02:13:40.919Z,9.42
2023-05-14T02:16:26.942Z,9.24
2023-05-14T02:19:12.887Z,9.80
2023-05-14T02:21:58.878Z,9.67
2023-05-14T02:24:44.810Z,9.21
2023-05-14T02:27:30.746Z,9.75
2023-05-14T02:30:16.449Z,9.80
2023-05-14T02:33:02.387Z,9.63
2023-05-14T02:35:48.287Z,9.78
2023-05-14T02:38:34.336Z,9.94
2023-05-14T02:41:20.374Z,9.53
2023-05-14T02:44:06.178Z,9.40
2023-05-14T02:46:52.091Z,9.43
2023-05-14T02:49:38.047Z,9.48
2023-05-14T02:52:23.897Z,9.27
2023-05-14T02:55:09.645Z,9.56
2023-05-14T02:57:55.464Z,8.85
2023-05-14T03:00:41.468Z,9.13
2023-05-14T03:03:27.890Z,8.83
2023-05-14T03:06:14.184Z,8.89
2023-05-14T03:09:00.038Z,8.93
2023-05-14T03:11:45.907Z,8.94
2023-05-14T03:14:31.759Z,9.22
2023-05-14T03:17:17.685Z,9.02
2023-05-14T03:20:03.468Z,8.92
2023-05-14T03:22:49.286Z,8.78
2023-05-14T03:25:35.157Z,8.47
2023-05-14T03:28:20.961Z,8.55
2023-05-14T03:31:06.900Z,8.68
2023-05-14T03:33:52.828Z,8.45
2023-05-14T03:36:38.686Z,8.41
2023-05-14T03:39:24.637Z,8.57
2023-05-14T03:42:10.420Z,8.81
2023-05-14T03:44:56.386Z,8.50
2023-05-14T03:47:42.315Z,9.01
2023-05-14T03:50:28.143Z,8.63
2023-05-14T03:53:14.128Z,8.88
2023-05-14T03:55:59.928Z,8.65
2023-05-14T03:58:45.767Z,9.12
2023-05-14T04:01:31.640Z,8.71
2023-05-14T04:04:17.517Z,8.78
2023-05-14T04:07:03.435Z,9.30
2023-05-14T04:09:49.382Z,9.22
2023-05-14T04:12:35.256Z,9.52
2023-05-14T04:15:21.295Z,9.39
2023-05-14T04:18:09.283Z,9.11
2023-05-14T04:20:55.394Z,9.24
2023-05-14T04:23:41.337Z,9.42
2023-05-14T04:26:27.145Z,9.23
2023-05-14T04:29:13.154Z,9.29
2023-05-14T04:31:59.035Z,8.84
2023-05-14T04:34:45.078Z,9.11
2023-05-14T04:37:30.920Z,8.81
2023-05-14T04:40:16.844Z,8.93
2023-05-14T04:43:02.837Z,8.90
2023-05-14T04:45:48.854Z,9.35
2023-05-14T04:48:34.774Z,9.08
2023-05-14T04:51:20.648Z,8.98
2023-05-14T04:54:06.652Z,8.86
2023-05-14T04:56:52.533Z,8.95
2023-05-14T04:59:38.335Z,9.20
2023-05-14T05:02:24.189Z,9.08
2023-05-14T05:05:10.252Z,9.38
2023-05-14T05:07:56.345Z,8.75
2023-05-14T05:10:42.197Z,8.61
2023-05-14T05:13:28.174Z,8.84
2023-05-14T05:16:14.248Z,8.42
2023-05-14T05:19:00.186Z,8.49
2023-05-14T05:21:45.998Z,8.46
2023-05-14T05:24:31.885Z,8.84
2023-05-14T05:27:17.761Z,8.90
2023-05-14T05:30:03.703Z,8.50
2023-05-14T05:32:49.775Z,8.81
2023-05-14T05:35:35.813Z,8.49
2023-05-14T05:38:21.702Z,8.85
2023-05-14T05:41:07.661Z,8.84
2023-05-14T05:43:53.695Z,8.59
2023-05-14T05:46:39.571Z,8.65
2023-05-14T05:49:25.690Z,8.61
2023-05-14T05:52:11.568Z,8.66
2023-05-14T05:54:57.477Z,8.92
2023-05-14T05:57:43.475Z,8.81
2023-05-14T06:00:29.441Z,9.12
2023-05-14T06:03:15.269Z,8.57
2023-05-14T06:06:01.293Z,8.31
2023-05-14T06:08:47.129Z,8.72
2023-05-14T06:11:33.017Z,8.59
2023-05-14T06:14:18.972Z,8.39
2023-05-14T06:17:05.026Z,8.37
2023-05-14T06:19:50.858Z,8.25
2023-05-14T06:22:36.697Z,8.28
2023-05-14T06:25:22.615Z,8.27
2023-05-14T06:28:08.516Z,8.35
2023-05-14T06:30:54.341Z,8.67
2023-05-14T06:33:40.281Z,8.74
2023-05-14T06:36:26.177Z,8.36
2023-05-14T06:39:12.118Z,8.64
2023-05-14T06:41:58.035Z,8.46
2023-05-14T06:44:43.871Z,8.41
2023-05-14T06:47:29.849Z,8.96
2023-05-14T06:50:15.857Z,8.59
2023-05-14T06:53:01.703Z,8.75
2023-05-14T06:55:47.797Z,8.65
2023-05-14T06:58:33.758Z,8.74
2023-05-14T07:01:19.783Z,8.77
2023-05-14T07:04:05.705Z,9.01
2023-05-14T07:06:51.549Z,9.02
2023-05-14T07:09:37.468Z,9.19
2023-05-14T07:12:23.285Z,8.91
2023-05-14T07:15:09.180Z,9.01
2023-05-14T07:17:55.041Z,8.98
2023-05-14T07:20:41.026Z,9.18
2023-05-14T07:23:26.988Z,9.41
2023-05-14T07:26:12.893Z,9.16
2023-05-14T07:28:58.825Z,9.26
2023-05-14T07:31:44.992Z,9.34
2023-05-14T07:34:31.466Z,9.23
2023-05-14T07:37:17.357Z,9.83
2023-05-14T07:40:03.181Z,10.02
2023-05-14T07:42:49.090Z,10.17
2023-05-14T07:45:34.920Z,9.97
2023-05-14T07:48:20.985Z,9.94
2023-05-14T07:51:06.939Z,9.26
2023-05-14T07:53:52.907Z,9.60
2023-05-14T07:56:38.859Z,9.94
2023-05-14T07:59:24.750Z,9.92
2023-05-14T08:02:10.677Z,9.91
2023-05-14T08:04:56.592Z,10.35
2023-05-14T08:07:42.540Z,10.84
2023-05-14T08:10:28.975Z,10.91
2023-05-14T08:13:15.129Z,10.92
2023-05-14T08:16:00.922Z,11.20
2023-05-14T08:18:46.931Z,12.04
2023-05-14T08:21:32.852Z,11.51
2023-05-14T08:24:18.824Z,11.26
2023-05-14T08:27:04.694Z,10.78
2023-05-14T08:29:52.653Z,10.74
2023-05-14T08:32:38.865Z,10.80
2023-05-14T08:35:25.225Z,10.83
2023-05-14T08:38:11.227Z,11.49
2023-05-14T08:40:57.257Z,11.93
2023-05-14T08:43:43.113Z,12.40
2023-05-14T08:46:29.155Z,12.66
2023-05-14T08:49:15.272Z,11.93
2023-05-14T08:52:01.034Z,12.24
2023-05-14T08:54:46.925Z,13.17
2023-05-14T08:57:32.813Z,12.78
2023-05-14T09:00:18.793Z,12.67
2023-05-14T09:03:04.746Z,13.11
2023-05-14T09:05:50.591Z,13.07
2023-05-14T09:08:36.599Z,12.93
2023-05-14T09:11:22.548Z,13.17
2023-05-14T09:14:08.356Z,12.51
2023-05-14T09:16:54.337Z,13.03
2023-05-14T09:19:40.074Z,12.85
2023-05-14T09:22:25.953Z,13.07
2023-05-14T09:25:11.865Z,13.41
2023-05-14T09:27:58.766Z,13.26
2023-05-14T09:30:45.131Z,12.86
2023-05-14T09:33:31.166Z,12.54
2023-05-14T09:36:17.030Z,12.10
2023-05-14T09:39:02.946Z,12.03
2023-05-14T09:41:48.842Z,12.27
2023-05-14T09:44:34.674Z,11.85
2023-05-14T09:47:20.789Z,12.20
2023-05-14T09:50:07.003Z,12.48
2023-05-14T09:52:52.936Z,12.54
2023-05-14T09:55:38.698Z,12.57
2023-05-14T09:58:24.537Z,12.28
2023-05-14T10:01:10.368Z,13.36
2023-05-14T10:03:56.327Z,13.52
2023-05-14T10:06:42.265Z,13.12
2023-05-14T10:09:28.569Z,13.42
2023-05-14T10:12:14.567Z,13.50
2023-05-14T10:15:00.490Z,13.31
2023-05-14T10:17:46.475Z,12.99
2023-05-14T10:20:32.336Z,12.83
2023-05-14T10:23:18.259Z,13.40
2023-05-14T10:26:04.060Z,13.75
2023-05-14T10:28:50.043Z,14.02
2023-05-14T10:31:36.011Z,13.73
2023-05-14T10:34:22.034Z,12.65
2023-05-14T10:37:07.989Z,12.91
2023-05-14T10:39:53.966Z,12.52
2023-05-14T10:42:40.396Z,13.28
2023-05-14T10:45:26.254Z,13.86
2023-05-14T10:48:12.219Z,13.31
2023-05-14T10:50:58.421Z,13.65
2023-05-14T10:53:44.391Z,13.99
2023-05-14T10:56:30.213Z,14.32
2023-05-14T10:59:16.047Z,14.15
2023-05-14T11:02:01.958Z,13.52
2023-05-14T11:04:47.858Z,13.86
2023-05-14T11:07:33.756Z,12.94
2023-05-14T11:10:19.700Z,13.29
2023-05-14T11:13:05.821Z,13.45
2023-05-14T11:15:51.585Z,13.87
2023-05-14T11:18:37.670Z,13.70
2023-05-14T11:21:23.644Z,12.91
2023-05-14T11:24:09.498Z,13.30
2023-05-14T11:26:55.455Z,13.18
2023-05-14T11:29:41.299Z,13.19
2023-05-14T11:32:27.214Z,13.38
2023-05-14T11:35:13.216Z,13.10
2023-05-14T11:37:59.341Z,12.94
2023-05-14T11:40:45.141Z,12.66
2023-05-14T11:43:31.103Z,12.48
2023-05-14T11:46:17.004Z,12.83
2023-05-14T11:49:02.973Z,12.79
2023-05-14T11:51:48.870Z,13.18
2023-05-14T11:54:34.745Z,12.78
2023-05-14T11:57:20.640Z,12.91
2023-05-14T12:00:06.588Z,13.00
2023-05-14T12:02:52.861Z,12.64
2023-05-14T12:05:39.126Z,12.45
2023-05-14T12:08:24.894Z,12.75
2023-05-14T12:11:10.787Z,12.30
2023-05-14T12:13:56.889Z,13.05
2023-05-14T12:16:42.854Z,12.79
2023-05-14T12:19:29.219Z,12.70
2023-05-14T12:22:15.106Z,12.70
2023-05-14T12:25:00.984Z,13.27
2023-05-14T12:27:46.886Z,13.58
2023-05-14T12:30:32.793Z,13.37
2023-05-14T12:33:18.839Z,13.57
2023-05-14T12:36:20.273Z,13.61
2023-05-14T12:39:07.083Z,13.95
2023-05-14T12:41:53.086Z,14.05
2023-05-14T12:44:39.170Z,14.60
2023-05-14T12:47:24.963Z,14.01
2023-05-14T12:50:10.890Z,13.98
2023-05-14T12:52:56.789Z,13.69
2023-05-14T12:55:42.610Z,14.40
2023-05-14T12:58:28.506Z,14.29
2023-05-14T13:01:14.419Z,13.74
2023-05-14T13:04:00.655Z,14.39
2023-05-14T13:06:47.009Z,14.27
2023-05-14T13:09:32.793Z,14.17
2023-05-14T13:12:18.587Z,14.25
2023-05-14T13:15:04.445Z,14.05
2023-05-14T13:17:50.486Z,13.96
2023-05-14T13:20:36.300Z,14.44
2023-05-14T13:23:22.230Z,14.28
2023-05-14T13:26:08.760Z,14.54
2023-05-14T13:28:54.711Z,15.04
2023-05-14T13:31:40.545Z,14.39
2023-05-14T13:34:26.457Z,14.74
2023-05-14T13:37:12.385Z,14.87
2023-05-14T13:39:58.331Z,14.48
2023-05-14T13:42:44.366Z,14.49
2023-05-14T13:45:30.271Z,13.86
2023-05-14T13:48:16.425Z,14.13
2023-05-14T13:51:02.586Z,14.63
2023-05-14T13:53:48.651Z,14.65
2023-05-14T13:56:34.493Z,14.70
2023-05-14T13:59:20.337Z,15.06
2023-05-14T14:02:06.551Z,14.82
2023-05-14T14:04:52.852Z,14.46
2023-05-14T14:07:38.705Z,14.29
2023-05-14T14:10:24.641Z,14.14
2023-05-14T14:13:10.523Z,14.05
2023-05-14T14:15:56.310Z,14.59
2023-05-14T14:18:42.159Z,14.22
2023-05-14T14:21:27.952Z,14.32
2023-05-14T14:24:13.954Z,14.23
2023-05-14T14:26:59.796Z,14.38
2023-05-14T14:29:46.228Z,14.77
2023-05-14T14:32:34.124Z,14.33
2023-05-14T14:35:21.106Z,14.37
2023-05-14T14:38:07.084Z,15.15
2023-05-14T14:40:53.021Z,15.25
2023-05-14T14:43:38.884Z,14.85
2023-05-14T14:46:24.836Z,15.44
2023-05-14T14:49:10.772Z,15.23
2023-05-14T14:51:56.607Z,14.30
2023-05-14T14:54:42.573Z,14.29
2023-05-14T14:57:28.845Z,14.04
2023-05-14T15:00:14.657Z,14.18
2023-05-14T15:03:00.770Z,14.59
2023-05-14T15:05:46.952Z,14.58
2023-05-14T15:08:33.088Z,14.74
2023-05-14T15:11:19.097Z,14.91
2023-05-14T15:14:04.923Z,14.42
2023-05-14T15:16:51.200Z,14.64
2023-05-14T15:19:37.120Z,14.12
2023-05-14T15:22:22.889Z,14.31
2023-05-14T15:25:08.835Z,13.81
2023-05-14T15:27:54.673Z,13.63
2023-05-14T15:30:40.568Z,14.04
2023-05-14T15:33:26.440Z,13.76
2023-05-14T15:36:12.807Z,13.82
2023-05-14T15:38:58.669Z,14.24
2023-05-14T15:41:44.669Z,13.67
2023-05-14T15:44:30.540Z,14.16
2023-05-14T15:47:16.321Z,14.25
2023-05-14T15:50:02.211Z,14.66
2023-05-14T15:52:48.047Z,14.85
2023-05-14T15:55:34.100Z,14.79
2023-05-14T15:58:19.918Z,15.08
2023-05-14T16:01:05.824Z,15.14
2023-05-14T16:03:51.908Z,14.69
2023-05-14T16:06:38.161Z,14.35
2023-05-14T16:09:23.974Z,14.29
2023-05-14T16:12:09.842Z,14.07
2023-05-14T16:14:55.833Z,13.51
2023-05-14T16:17:41.769Z,11.62
2023-05-14T16:20:27.675Z,11.60
2023-05-14T16:23:13.497Z,10.83
2023-05-14T16:25:59.514Z,10.53
2023-05-14T16:28:45.572Z,10.58
2023-05-14T16:31:31.559Z,10.66
2023-05-14T16:34:17.374Z,10.84
2023-05-14T16:37:03.373Z,10.47
2023-05-14T16:39:49.868Z,10.42
2023-05-14T16:42:35.875Z,10.91
2023-05-14T16:45:21.915Z,11.24
2023-05-14T16:48:08.219Z,11.22
2023-05-14T16:50:54.001Z,11.29
2023-05-14T16:53:39.922Z,11.41
2023-05-14T16:56:25.753Z,11.49
2023-05-14T16:59:11.674Z,11.41
2023-05-14T17:01:58.139Z,11.68
2023-05-14T17:04:44.157Z,11.82
2023-05-14T17:07:29.956Z,11.56
2023-05-14T17:10:15.951Z,11.47
2023-05-14T17:13:01.861Z,11.54
2023-05-14T17:15:47.832Z,11.42
2023-05-14T17:18:33.734Z,11.62
2023-05-14T17:21:19.565Z,11.49
2023-05-14T17:24:05.413Z,11.49
2023-05-14T17:26:51.252Z,11.42
2023-05-14T17:29:37.139Z,11.49
2023-05-14T17:32:23.587Z,11.68
2023-05-14T17:35:09.523Z,11.39
2023-05-14T17:37:55.493Z,11.46
2023-05-14T17:40:43.428Z,11.61
2023-05-14T17:43:29.370Z,11.55
2023-05-14T17:46:15.326Z,11.54
2023-05-14T17:49:01.327Z,11.64
2023-05-14T17:51:47.237Z,11.76
2023-05-14T17:54:33.173Z,11.75
2023-05-14T17:57:19.114Z,11.61
2023-05-14T18:00:04.982Z,11.63
2023-05-14T18:02:50.906Z,11.70
2023-05-14T18:05:36.726Z,11.82
2023-05-14T18:08:22.707Z,11.56
2023-05-14T18:11:08.658Z,11.27
2023-05-14T18:13:54.565Z,11.38
2023-05-14T18:16:40.594Z,11.50
2023-05-14T18:19:26.507Z,11.07
2023-05-14T18:22:12.533Z,10.51
2023-05-14T18:24:58.412Z,10.47
2023-05-14T18:27:44.527Z,10.06
2023-05-14T18:30:30.897Z,9.71
2023-05-14T18:33:16.822Z,9.57
2023-05-14T18:36:02.756Z,9.52
2023-05-14T18:38:48.766Z,9.32
2023-05-14T18:41:34.617Z,9.10
2023-05-14T18:44:20.602Z,9.09
2023-05-14T18:47:06.598Z,9.05
2023-05-14T18:49:52.472Z,8.98
2023-05-14T18:52:38.536Z,9.16
2023-05-14T18:55:24.617Z,9.13
2023-05-14T18:58:10.814Z,9.29
2023-05-14T19:00:56.735Z,9.13
2023-05-14T19:03:42.765Z,8.95
2023-05-14T19:06:31.074Z,9.06
2023-05-14T19:09:17.053Z,9.23
2023-05-14T19:12:02.930Z,9.29
2023-05-14T19:14:48.794Z,9.19
2023-05-14T19:17:34.695Z,9.36
2023-05-14T19:20:20.508Z,9.13
2023-05-14T19:23:06.380Z,9.40
2023-05-14T19:25:52.288Z,9.59
2023-05-14T19:28:38.305Z,9.45
2023-05-14T19:31:24.261Z,9.38
2023-05-14T19:34:10.105Z,9.33
2023-05-14T19:36:56.140Z,9.32
2023-05-14T19:39:42.094Z,9.37
2023-05-14T19:42:27.982Z,9.47
2023-05-14T19:45:13.926Z,9.24
2023-05-14T19:47:59.794Z,9.04
2023-05-14T19:50:45.856Z,8.88
2023-05-14T19:53:31.744Z,9.07
2023-05-14T19:56:17.567Z,9.05
2023-05-14T19:59:03.431Z,9.22
2023-05-14T20:01:49.266Z,9.21
2023-05-14T20:04:35.121Z,9.20
2023-05-14T20:07:20.952Z,9.06
2023-05-14T20:10:06.708Z,9.15
2023-05-14T20:12:52.639Z,9.12
2023-05-14T20:15:38.538Z,9.29
2023-05-14T20:18:24.356Z,9.45
2023-05-14T20:21:10.226Z,9.58
2023-05-14T20:23:56.124Z,9.69
2023-05-14T20:26:42.008Z,9.78
2023-05-14T20:29:28.038Z,10.03
2023-05-14T20:32:13.858Z,9.91
2023-05-14T20:34:59.677Z,9.91
2023-05-14T20:37:45.470Z,10.06
2023-05-14T20:40:31.377Z,10.23
2023-05-14T20:43:17.623Z,10.20
2023-05-14T20:46:03.509Z,10.48
2023-05-14T20:48:49.377Z,10.45
2023-05-14T20:51:35.462Z,9.87
2023-05-14T20:54:21.380Z,10.03
2023-05-14T20:57:07.357Z,10.54
2023-05-14T20:59:53.201Z,10.36
2023-05-14T21:02:39.173Z,10.45
2023-05-14T21:05:25.669Z,10.27
2023-05-14T21:08:11.800Z,10.23
2023-05-14T21:10:57.821Z,9.97
2023-05-14T21:13:43.677Z,9.96
2023-05-14T21:16:29.397Z,9.95
2023-05-14T21:19:15.579Z,10.09
2023-05-14T21:22:01.846Z,10.55
2023-05-14T21:24:47.660Z,10.85
2023-05-14T21:27:33.607Z,11.26
2023-05-14T21:30:19.439Z,11.25
2023-05-14T21:33:05.365Z,10.80
2023-05-14T21:35:51.244Z,10.68
2023-05-14T21:38:37.103Z,10.87
2023-05-14T21:41:23.001Z,11.02
2023-05-14T21:44:08.812Z,11.65
2023-05-14T21:46:54.694Z,11.93
2023-05-14T21:49:40.613Z,12.06
2023-05-14T21:52:26.462Z,12.21
2023-05-14T21:55:12.288Z,12.62
2023-05-14T21:57:58.196Z,12.64
2023-05-14T22:00:44.121Z,12.16
2023-05-14T22:03:30.072Z,11.86
2023-05-14T22:06:16.226Z,11.05
2023-05-14T22:09:02.057Z,10.47
2023-05-14T22:12:01.017Z,10.16
2023-05-14T22:15:06.918Z,9.87
2023-05-14T22:17:52.790Z,9.76
2023-05-14T22:20:38.761Z,9.56
2023-05-14T22:23:24.525Z,9.47
2023-05-14T22:26:10.259Z,9.41
2023-05-14T22:28:56.117Z,9.50
2023-05-14T22:31:42.084Z,9.83
2023-05-14T22:34:28.052Z,9.90
2023-05-14T22:37:13.796Z,9.58
2023-05-14T22:39:59.668Z,9.79
2023-05-14T22:42:45.521Z,9.43
2023-05-14T22:45:31.364Z,10.05
2023-05-14T22:48:17.113Z,10.01
2023-05-14T22:51:03.038Z,9.99
2023-05-14T22:53:49.010Z,10.07
2023-05-14T22:56:34.861Z,10.48
2023-05-14T22:59:22.729Z,11.29
2023-05-14T23:02:09.760Z,11.66
2023-05-14T23:04:56.047Z,11.91
2023-05-14T23:07:42.108Z,12.55
2023-05-14T23:10:27.886Z,12.86
2023-05-14T23:13:13.742Z,12.01
2023-05-14T23:15:59.604Z,11.39
2023-05-14T23:18:45.797Z,10.95
2023-05-14T23:21:32.025Z,10.94
2023-05-14T23:24:17.856Z,10.58
2023-05-14T23:27:03.771Z,10.56
2023-05-14T23:29:49.624Z,10.47
2023-05-14T23:32:35.594Z,10.38
2023-05-14T23:35:21.444Z,10.21
2023-05-14T23:38:07.212Z,9.90
2023-05-14T23:40:53.125Z,9.61
2023-05-14T23:43:39.009Z,9.45
2023-05-14T23:46:24.991Z,9.53
2023-05-14T23:49:10.806Z,9.47
2023-05-14T23:51:56.599Z,9.60
2023-05-14T23:54:42.535Z,9.39
2023-05-14T23:57:28.255Z,9.19
